sensor_id;sensor_type;location;lat;lon;timestamp;P1;durP1;ratioP1;P2;durP2;ratioP2
5811;SDS011;2932;52.400;9.558;2023-03-14T00:01:11;3.57;;;1.10;;
5811;SDS011;2932;52.400;9.558;2023-03-14T00:03:38;2.50;;;1.13;;
5811;SDS011;2932;52.400;9.558;2023-03-14T00:06:04;2.03;;;1.10;;
5811;SDS011;2932;52.400;9.558;2023-03-14T00:08:30;3.20;;;1.10;;
5811;SDS011;2932;52.400;9.558;2023-03-14T00:10:55;3.23;;;1.30;;
5811;SDS011;2932;52.400;9.558;2023-03-14T00:13:23;2.30;;;1.00;;
5811;SDS011;2932;52.400;9.558;2023-03-14T00:15:48;5.30;;;1.20;;
5811;SDS011;2932;52.400;9.558;2023-03-14T00:18:14;3.03;;;1.50;;
5811;SDS011;2932;52.400;9.558;2023-03-14T00:20:39;2.87;;;1.20;;
5811;SDS011;2932;52.400;9.558;2023-03-14T00:23:04;2.73;;;1.00;;
5811;SDS011;2932;52.400;9.558;2023-03-14T00:25:30;4.83;;;1.03;;
5811;SDS011;2932;52.400;9.558;2023-03-14T00:27:55;3.10;;;1.47;;
5811;SDS011;2932;52.400;9.558;2023-03-14T00:30:20;4.53;;;1.10;;
5811;SDS011;2932;52.400;9.558;2023-03-14T00:32:47;4.70;;;1.23;;
5811;SDS011;2932;52.400;9.558;2023-03-14T00:35:12;4.07;;;1.10;;
5811;SDS011;2932;52.400;9.558;2023-03-14T00:37:37;3.13;;;1.00;;
5811;SDS011;2932;52.400;9.558;2023-03-14T00:40:03;6.30;;;1.30;;
5811;SDS011;2932;52.400;9.558;2023-03-14T00:42:31;5.70;;;1.40;;
5811;SDS011;2932;52.400;9.558;2023-03-14T00:44:57;2.47;;;0.93;;
5811;SDS011;2932;52.400;9.558;2023-03-14T00:47:22;4.23;;;1.03;;
5811;SDS011;2932;52.400;9.558;2023-03-14T00:49:47;2.83;;;1.27;;
5811;SDS011;2932;52.400;9.558;2023-03-14T00:52:13;2.47;;;1.10;;
5811;SDS011;2932;52.400;9.558;2023-03-14T00:54:38;3.80;;;1.40;;
5811;SDS011;2932;52.400;9.558;2023-03-14T00:57:04;1.00;;;0.90;;
5811;SDS011;2932;52.400;9.558;2023-03-14T00:59:29;3.20;;;0.90;;
5811;SDS011;2932;52.400;9.558;2023-03-14T01:01:54;5.20;;;1.27;;
5811;SDS011;2932;52.400;9.558;2023-03-14T01:04:20;3.60;;;1.10;;
5811;SDS011;2932;52.400;9.558;2023-03-14T01:06:45;2.80;;;0.80;;
5811;SDS011;2932;52.400;9.558;2023-03-14T01:09:10;2.93;;;1.10;;
5811;SDS011;2932;52.400;9.558;2023-03-14T01:11:36;2.43;;;1.00;;
5811;SDS011;2932;52.400;9.558;2023-03-14T01:14:02;2.43;;;0.90;;
5811;SDS011;2932;52.400;9.558;2023-03-14T01:16:29;3.20;;;0.80;;
5811;SDS011;2932;52.400;9.558;2023-03-14T01:18:56;4.43;;;1.00;;
5811;SDS011;2932;52.400;9.558;2023-03-14T01:21:23;7.03;;;1.13;;
5811;SDS011;2932;52.400;9.558;2023-03-14T01:23:54;5.20;;;1.17;;
5811;SDS011;2932;52.400;9.558;2023-03-14T01:26:22;2.50;;;1.17;;
5811;SDS011;2932;52.400;9.558;2023-03-14T01:28:49;2.97;;;0.93;;
5811;SDS011;2932;52.400;9.558;2023-03-14T01:31:16;2.77;;;1.20;;
5811;SDS011;2932;52.400;9.558;2023-03-14T01:33:41;2.33;;;1.10;;
5811;SDS011;2932;52.400;9.558;2023-03-14T01:36:07;3.40;;;1.00;;
5811;SDS011;2932;52.400;9.558;2023-03-14T01:38:34;6.13;;;1.00;;
5811;SDS011;2932;52.400;9.558;2023-03-14T01:41:01;3.83;;;1.20;;
5811;SDS011;2932;52.400;9.558;2023-03-14T01:43:27;3.70;;;1.03;;
5811;SDS011;2932;52.400;9.558;2023-03-14T01:51:22;3.33;;;1.13;;
5811;SDS011;2932;52.400;9.558;2023-03-14T01:54:08;3.63;;;1.03;;
5811;SDS011;2932;52.400;9.558;2023-03-14T01:56:38;3.30;;;1.00;;
5811;SDS011;2932;52.400;9.558;2023-03-14T01:59:06;3.10;;;1.10;;
5811;SDS011;2932;52.400;9.558;2023-03-14T02:01:34;5.57;;;1.30;;
5811;SDS011;2932;52.400;9.558;2023-03-14T02:04:02;7.27;;;1.87;;
5811;SDS011;2932;52.400;9.558;2023-03-14T02:06:31;3.47;;;1.30;;
5811;SDS011;2932;52.400;9.558;2023-03-14T02:09:02;3.10;;;0.87;;
5811;SDS011;2932;52.400;9.558;2023-03-14T02:11:29;4.07;;;0.70;;
5811;SDS011;2932;52.400;9.558;2023-03-14T02:13:55;2.20;;;0.90;;
5811;SDS011;2932;52.400;9.558;2023-03-14T02:16:22;4.43;;;1.13;;
5811;SDS011;2932;52.400;9.558;2023-03-14T02:18:48;4.07;;;1.07;;
5811;SDS011;2932;52.400;9.558;2023-03-14T02:21:16;2.00;;;0.77;;
5811;SDS011;2932;52.400;9.558;2023-03-14T02:29:33;3.30;;;1.10;;
5811;SDS011;2932;52.400;9.558;2023-03-14T02:32:01;6.60;;;1.03;;
5811;SDS011;2932;52.400;9.558;2023-03-14T02:34:27;3.07;;;1.17;;
5811;SDS011;2932;52.400;9.558;2023-03-14T02:36:52;4.23;;;1.20;;
5811;SDS011;2932;52.400;9.558;2023-03-14T02:39:19;7.17;;;1.20;;
5811;SDS011;2932;52.400;9.558;2023-03-14T02:41:51;5.87;;;1.53;;
5811;SDS011;2932;52.400;9.558;2023-03-14T02:44:16;4.43;;;1.37;;
5811;SDS011;2932;52.400;9.558;2023-03-14T02:46:41;4.50;;;1.10;;
5811;SDS011;2932;52.400;9.558;2023-03-14T02:49:08;2.17;;;1.13;;
5811;SDS011;2932;52.400;9.558;2023-03-14T02:51:36;4.30;;;1.03;;
5811;SDS011;2932;52.400;9.558;2023-03-14T02:54:04;4.07;;;1.20;;
5811;SDS011;2932;52.400;9.558;2023-03-14T02:56:29;2.27;;;1.00;;
5811;SDS011;2932;52.400;9.558;2023-03-14T02:58:55;4.13;;;1.00;;
5811;SDS011;2932;52.400;9.558;2023-03-14T03:01:22;2.47;;;0.60;;
5811;SDS011;2932;52.400;9.558;2023-03-14T03:03:48;3.67;;;1.07;;
5811;SDS011;2932;52.400;9.558;2023-03-14T03:06:13;5.17;;;1.00;;
5811;SDS011;2932;52.400;9.558;2023-03-14T03:08:38;3.00;;;0.90;;
5811;SDS011;2932;52.400;9.558;2023-03-14T03:11:04;9.30;;;1.47;;
5811;SDS011;2932;52.400;9.558;2023-03-14T03:13:30;3.30;;;0.90;;
5811;SDS011;2932;52.400;9.558;2023-03-14T03:15:55;3.53;;;0.80;;
5811;SDS011;2932;52.400;9.558;2023-03-14T03:18:21;3.80;;;0.90;;
5811;SDS011;2932;52.400;9.558;2023-03-14T03:20:46;3.17;;;0.90;;
5811;SDS011;2932;52.400;9.558;2023-03-14T03:23:11;5.80;;;1.50;;
5811;SDS011;2932;52.400;9.558;2023-03-14T03:25:37;2.27;;;0.80;;
5811;SDS011;2932;52.400;9.558;2023-03-14T03:28:02;5.07;;;0.73;;
5811;SDS011;2932;52.400;9.558;2023-03-14T03:30:32;4.43;;;1.20;;
5811;SDS011;2932;52.400;9.558;2023-03-14T03:32:59;7.77;;;1.70;;
5811;SDS011;2932;52.400;9.558;2023-03-14T03:35:24;2.00;;;0.93;;
5811;SDS011;2932;52.400;9.558;2023-03-14T03:37:49;2.87;;;0.70;;
5811;SDS011;2932;52.400;9.558;2023-03-14T03:40:14;2.53;;;1.27;;
5811;SDS011;2932;52.400;9.558;2023-03-14T03:42:40;5.10;;;1.63;;
5811;SDS011;2932;52.400;9.558;2023-03-14T03:45:05;3.53;;;0.93;;
5811;SDS011;2932;52.400;9.558;2023-03-14T03:47:31;2.53;;;0.60;;
5811;SDS011;2932;52.400;9.558;2023-03-14T03:49:56;1.93;;;0.40;;
5811;SDS011;2932;52.400;9.558;2023-03-14T03:52:22;2.40;;;0.60;;
5811;SDS011;2932;52.400;9.558;2023-03-14T03:54:47;0.70;;;0.40;;
5811;SDS011;2932;52.400;9.558;2023-03-14T03:57:12;0.70;;;0.27;;
5811;SDS011;2932;52.400;9.558;2023-03-14T03:59:38;1.27;;;0.30;;
5811;SDS011;2932;52.400;9.558;2023-03-14T04:02:05;1.30;;;0.40;;
5811;SDS011;2932;52.400;9.558;2023-03-14T04:04:30;0.73;;;0.30;;
5811;SDS011;2932;52.400;9.558;2023-03-14T04:06:55;2.00;;;0.47;;
5811;SDS011;2932;52.400;9.558;2023-03-14T04:09:21;0.60;;;0.50;;
5811;SDS011;2932;52.400;9.558;2023-03-14T04:11:46;2.10;;;0.60;;
5811;SDS011;2932;52.400;9.558;2023-03-14T04:14:11;1.70;;;0.60;;
5811;SDS011;2932;52.400;9.558;2023-03-14T04:16:37;2.10;;;0.50;;
5811;SDS011;2932;52.400;9.558;2023-03-14T04:19:02;2.73;;;0.50;;
5811;SDS011;2932;52.400;9.558;2023-03-14T04:21:27;1.50;;;0.57;;
5811;SDS011;2932;52.400;9.558;2023-03-14T04:23:53;2.03;;;0.30;;
5811;SDS011;2932;52.400;9.558;2023-03-14T04:26:18;0.80;;;0.60;;
5811;SDS011;2932;52.400;9.558;2023-03-14T04:28:44;1.87;;;0.40;;
5811;SDS011;2932;52.400;9.558;2023-03-14T04:31:10;3.37;;;0.40;;
5811;SDS011;2932;52.400;9.558;2023-03-14T04:33:38;0.20;;;0.20;;
5811;SDS011;2932;52.400;9.558;2023-03-14T04:36:04;1.57;;;0.50;;
5811;SDS011;2932;52.400;9.558;2023-03-14T04:38:30;1.43;;;1.00;;
5811;SDS011;2932;52.400;9.558;2023-03-14T04:40:56;0.97;;;0.33;;
5811;SDS011;2932;52.400;9.558;2023-03-14T04:43:22;1.83;;;0.40;;
5811;SDS011;2932;52.400;9.558;2023-03-14T04:45:47;3.03;;;0.73;;
5811;SDS011;2932;52.400;9.558;2023-03-14T04:48:12;4.00;;;0.43;;
5811;SDS011;2932;52.400;9.558;2023-03-14T04:50:38;1.00;;;0.50;;
5811;SDS011;2932;52.400;9.558;2023-03-14T04:53:04;1.63;;;0.40;;
5811;SDS011;2932;52.400;9.558;2023-03-14T04:55:30;0.37;;;0.20;;
5811;SDS011;2932;52.400;9.558;2023-03-14T04:57:57;1.03;;;0.77;;
5811;SDS011;2932;52.400;9.558;2023-03-14T05:00:22;2.23;;;0.60;;
5811;SDS011;2932;52.400;9.558;2023-03-14T05:02:47;1.17;;;0.50;;
5811;SDS011;2932;52.400;9.558;2023-03-14T05:05:13;3.30;;;0.50;;
5811;SDS011;2932;52.400;9.558;2023-03-14T05:07:38;1.40;;;0.50;;
5811;SDS011;2932;52.400;9.558;2023-03-14T05:10:03;2.00;;;0.80;;
5811;SDS011;2932;52.400;9.558;2023-03-14T05:12:29;3.97;;;0.60;;
5811;SDS011;2932;52.400;9.558;2023-03-14T05:14:54;2.17;;;0.60;;
5811;SDS011;2932;52.400;9.558;2023-03-14T05:17:20;1.70;;;0.53;;
5811;SDS011;2932;52.400;9.558;2023-03-14T05:19:45;1.30;;;0.80;;
5811;SDS011;2932;52.400;9.558;2023-03-14T05:22:11;2.60;;;0.70;;
5811;SDS011;2932;52.400;9.558;2023-03-14T05:24:38;2.87;;;0.47;;
5811;SDS011;2932;52.400;9.558;2023-03-14T05:27:03;3.60;;;0.70;;
5811;SDS011;2932;52.400;9.558;2023-03-14T05:29:29;2.77;;;0.73;;
5811;SDS011;2932;52.400;9.558;2023-03-14T05:31:55;3.03;;;0.47;;
5811;SDS011;2932;52.400;9.558;2023-03-14T05:34:20;2.97;;;0.80;;
5811;SDS011;2932;52.400;9.558;2023-03-14T05:36:45;3.27;;;0.70;;
5811;SDS011;2932;52.400;9.558;2023-03-14T05:39:11;4.53;;;1.13;;
5811;SDS011;2932;52.400;9.558;2023-03-14T05:41:36;3.27;;;0.83;;
5811;SDS011;2932;52.400;9.558;2023-03-14T05:44:02;3.40;;;0.70;;
5811;SDS011;2932;52.400;9.558;2023-03-14T05:46:27;3.93;;;0.70;;
5811;SDS011;2932;52.400;9.558;2023-03-14T05:48:54;3.60;;;0.97;;
5811;SDS011;2932;52.400;9.558;2023-03-14T05:51:19;4.23;;;0.73;;
5811;SDS011;2932;52.400;9.558;2023-03-14T05:53:44;4.83;;;0.73;;
5811;SDS011;2932;52.400;9.558;2023-03-14T05:56:10;5.27;;;1.00;;
5811;SDS011;2932;52.400;9.558;2023-03-14T05:58:35;2.93;;;0.97;;
5811;SDS011;2932;52.400;9.558;2023-03-14T06:01:04;5.23;;;0.90;;
5811;SDS011;2932;52.400;9.558;2023-03-14T06:03:30;3.33;;;1.47;;
5811;SDS011;2932;52.400;9.558;2023-03-14T06:05:56;5.60;;;1.03;;
5811;SDS011;2932;52.400;9.558;2023-03-14T06:08:22;6.17;;;1.20;;
5811;SDS011;2932;52.400;9.558;2023-03-14T06:10:47;5.57;;;1.17;;
5811;SDS011;2932;52.400;9.558;2023-03-14T06:13:12;4.80;;;1.10;;
5811;SDS011;2932;52.400;9.558;2023-03-14T06:15:38;4.97;;;0.87;;
5811;SDS011;2932;52.400;9.558;2023-03-14T06:18:03;8.07;;;1.20;;
5811;SDS011;2932;52.400;9.558;2023-03-14T06:20:28;3.37;;;1.13;;
5811;SDS011;2932;52.400;9.558;2023-03-14T06:22:54;2.53;;;0.70;;
5811;SDS011;2932;52.400;9.558;2023-03-14T06:25:19;4.27;;;0.97;;
5811;SDS011;2932;52.400;9.558;2023-03-14T06:27:45;3.53;;;0.70;;
5811;SDS011;2932;52.400;9.558;2023-03-14T06:30:10;2.37;;;0.77;;
5811;SDS011;2932;52.400;9.558;2023-03-14T06:32:36;4.83;;;1.00;;
5811;SDS011;2932;52.400;9.558;2023-03-14T06:35:01;3.83;;;0.87;;
5811;SDS011;2932;52.400;9.558;2023-03-14T06:37:27;1.50;;;0.60;;
5811;SDS011;2932;52.400;9.558;2023-03-14T06:39:54;4.33;;;1.03;;
5811;SDS011;2932;52.400;9.558;2023-03-14T06:42:19;1.93;;;0.67;;
5811;SDS011;2932;52.400;9.558;2023-03-14T06:44:45;5.03;;;0.80;;
5811;SDS011;2932;52.400;9.558;2023-03-14T06:47:10;4.23;;;0.60;;
5811;SDS011;2932;52.400;9.558;2023-03-14T06:49:35;1.07;;;0.63;;
5811;SDS011;2932;52.400;9.558;2023-03-14T06:52:01;3.27;;;0.80;;
5811;SDS011;2932;52.400;9.558;2023-03-14T06:54:26;3.13;;;0.63;;
5811;SDS011;2932;52.400;9.558;2023-03-14T06:56:51;1.17;;;0.40;;
5811;SDS011;2932;52.400;9.558;2023-03-14T06:59:16;2.00;;;0.60;;
5811;SDS011;2932;52.400;9.558;2023-03-14T07:01:42;1.37;;;0.50;;
5811;SDS011;2932;52.400;9.558;2023-03-14T07:04:08;2.20;;;0.50;;
5811;SDS011;2932;52.400;9.558;2023-03-14T07:06:34;2.77;;;0.47;;
5811;SDS011;2932;52.400;9.558;2023-03-14T07:08:59;0.73;;;0.30;;
5811;SDS011;2932;52.400;9.558;2023-03-14T07:11:25;0.70;;;0.30;;
5811;SDS011;2932;52.400;9.558;2023-03-14T07:13:51;2.00;;;0.37;;
5811;SDS011;2932;52.400;9.558;2023-03-14T07:16:16;0.93;;;0.23;;
5811;SDS011;2932;52.400;9.558;2023-03-14T07:18:42;0.50;;;0.33;;
5811;SDS011;2932;52.400;9.558;2023-03-14T07:21:08;0.63;;;0.43;;
5811;SDS011;2932;52.400;9.558;2023-03-14T07:23:37;0.20;;;0.20;;
5811;SDS011;2932;52.400;9.558;2023-03-14T07:26:03;2.43;;;0.50;;
5811;SDS011;2932;52.400;9.558;2023-03-14T07:28:28;0.97;;;0.30;;
5811;SDS011;2932;52.400;9.558;2023-03-14T07:30:54;0.83;;;0.50;;
5811;SDS011;2932;52.400;9.558;2023-03-14T07:33:19;0.53;;;0.20;;
5811;SDS011;2932;52.400;9.558;2023-03-14T07:35:46;0.90;;;0.30;;
5811;SDS011;2932;52.400;9.558;2023-03-14T07:38:13;0.63;;;0.40;;
5811;SDS011;2932;52.400;9.558;2023-03-14T07:40:38;0.93;;;0.10;;
5811;SDS011;2932;52.400;9.558;2023-03-14T07:43:03;0.80;;;0.30;;
5811;SDS011;2932;52.400;9.558;2023-03-14T07:45:29;1.40;;;0.40;;
5811;SDS011;2932;52.400;9.558;2023-03-14T07:47:54;0.10;;;0.10;;
5811;SDS011;2932;52.400;9.558;2023-03-14T07:50:22;1.33;;;0.20;;
5811;SDS011;2932;52.400;9.558;2023-03-14T07:52:51;4.27;;;0.40;;
5811;SDS011;2932;52.400;9.558;2023-03-14T07:55:16;2.10;;;0.60;;
5811;SDS011;2932;52.400;9.558;2023-03-14T07:57:42;0.53;;;0.30;;
5811;SDS011;2932;52.400;9.558;2023-03-14T08:00:08;0.30;;;0.30;;
5811;SDS011;2932;52.400;9.558;2023-03-14T08:02:34;0.90;;;0.20;;
5811;SDS011;2932;52.400;9.558;2023-03-14T08:05:01;0.23;;;0.20;;
5811;SDS011;2932;52.400;9.558;2023-03-14T08:07:26;0.20;;;0.20;;
5811;SDS011;2932;52.400;9.558;2023-03-14T08:09:51;1.90;;;0.20;;
5811;SDS011;2932;52.400;9.558;2023-03-14T08:12:17;0.30;;;0.30;;
5811;SDS011;2932;52.400;9.558;2023-03-14T08:14:42;0.43;;;0.30;;
5811;SDS011;2932;52.400;9.558;2023-03-14T08:17:07;0.73;;;0.20;;
5811;SDS011;2932;52.400;9.558;2023-03-14T08:19:34;0.50;;;0.30;;
5811;SDS011;2932;52.400;9.558;2023-03-14T08:21:59;0.90;;;0.13;;
5811;SDS011;2932;52.400;9.558;2023-03-14T08:24:25;0.90;;;0.17;;
5811;SDS011;2932;52.400;9.558;2023-03-14T08:26:50;2.43;;;0.40;;
5811;SDS011;2932;52.400;9.558;2023-03-14T08:29:15;0.90;;;0.30;;
5811;SDS011;2932;52.400;9.558;2023-03-14T08:31:41;1.23;;;0.20;;
5811;SDS011;2932;52.400;9.558;2023-03-14T08:34:06;0.33;;;0.20;;
5811;SDS011;2932;52.400;9.558;2023-03-14T08:36:32;1.07;;;0.20;;
5811;SDS011;2932;52.400;9.558;2023-03-14T08:38:57;1.00;;;0.20;;
5811;SDS011;2932;52.400;9.558;2023-03-14T08:41:22;0.20;;;0.20;;
5811;SDS011;2932;52.400;9.558;2023-03-14T08:43:48;0.37;;;0.30;;
5811;SDS011;2932;52.400;9.558;2023-03-14T08:46:13;0.20;;;0.20;;
5811;SDS011;2932;52.400;9.558;2023-03-14T08:48:39;0.57;;;0.23;;
5811;SDS011;2932;52.400;9.558;2023-03-14T08:51:11;0.70;;;0.27;;
5811;SDS011;2932;52.400;9.558;2023-03-14T08:53:39;1.50;;;0.40;;
5811;SDS011;2932;52.400;9.558;2023-03-14T08:56:05;0.30;;;0.30;;
5811;SDS011;2932;52.400;9.558;2023-03-14T08:58:31;1.30;;;0.30;;
5811;SDS011;2932;52.400;9.558;2023-03-14T09:00:57;0.40;;;0.40;;
5811;SDS011;2932;52.400;9.558;2023-03-14T09:03:23;2.00;;;0.47;;
5811;SDS011;2932;52.400;9.558;2023-03-14T09:05:49;0.43;;;0.30;;
5811;SDS011;2932;52.400;9.558;2023-03-14T09:08:17;2.20;;;0.30;;
5811;SDS011;2932;52.400;9.558;2023-03-14T09:10:43;1.17;;;0.20;;
5811;SDS011;2932;52.400;9.558;2023-03-14T09:13:08;0.23;;;0.23;;
5811;SDS011;2932;52.400;9.558;2023-03-14T09:15:34;0.97;;;0.50;;
5811;SDS011;2932;52.400;9.558;2023-03-14T09:17:59;1.37;;;0.20;;
5811;SDS011;2932;52.400;9.558;2023-03-14T09:20:24;0.40;;;0.40;;
5811;SDS011;2932;52.400;9.558;2023-03-14T09:22:50;1.20;;;0.70;;
5811;SDS011;2932;52.400;9.558;2023-03-14T09:25:15;1.63;;;0.33;;
5811;SDS011;2932;52.400;9.558;2023-03-14T09:27:41;3.80;;;0.60;;
5811;SDS011;2932;52.400;9.558;2023-03-14T09:30:07;1.00;;;0.40;;
5811;SDS011;2932;52.400;9.558;2023-03-14T09:32:32;0.30;;;0.30;;
5811;SDS011;2932;52.400;9.558;2023-03-14T09:34:58;0.43;;;0.40;;
5811;SDS011;2932;52.400;9.558;2023-03-14T09:37:23;0.47;;;0.47;;
5811;SDS011;2932;52.400;9.558;2023-03-14T09:39:48;1.20;;;0.50;;
5811;SDS011;2932;52.400;9.558;2023-03-14T09:42:14;1.57;;;0.60;;
5811;SDS011;2932;52.400;9.558;2023-03-14T09:47:15;0.40;;;0.40;;
5811;SDS011;2932;52.400;9.558;2023-03-14T09:49:41;1.13;;;0.60;;
5811;SDS011;2932;52.400;9.558;2023-03-14T09:52:11;0.40;;;0.40;;
5811;SDS011;2932;52.400;9.558;2023-03-14T09:55:06;0.63;;;0.60;;
5811;SDS011;2932;52.400;9.558;2023-03-14T09:57:38;0.63;;;0.50;;
5811;SDS011;2932;52.400;9.558;2023-03-14T10:02:40;0.63;;;0.60;;
5811;SDS011;2932;52.400;9.558;2023-03-14T10:05:17;0.73;;;0.50;;
5811;SDS011;2932;52.400;9.558;2023-03-14T10:07:45;1.20;;;0.50;;
5811;SDS011;2932;52.400;9.558;2023-03-14T10:10:11;1.43;;;0.77;;
5811;SDS011;2932;52.400;9.558;2023-03-14T10:12:54;1.20;;;0.80;;
5811;SDS011;2932;52.400;9.558;2023-03-14T10:15:32;0.60;;;0.50;;
5811;SDS011;2932;52.400;9.558;2023-03-14T10:17:59;1.40;;;0.53;;
5811;SDS011;2932;52.400;9.558;2023-03-14T10:23:02;2.30;;;1.10;;
5811;SDS011;2932;52.400;9.558;2023-03-14T10:25:32;0.60;;;0.60;;
5811;SDS011;2932;52.400;9.558;2023-03-14T10:27:59;1.00;;;0.80;;
5811;SDS011;2932;52.400;9.558;2023-03-14T10:35:55;1.10;;;0.80;;
5811;SDS011;2932;52.400;9.558;2023-03-14T10:38:41;0.67;;;0.67;;
5811;SDS011;2932;52.400;9.558;2023-03-14T10:41:17;0.90;;;0.90;;
5811;SDS011;2932;52.400;9.558;2023-03-14T10:43:43;1.50;;;1.37;;
5811;SDS011;2932;52.400;9.558;2023-03-14T10:46:11;2.90;;;1.10;;
5811;SDS011;2932;52.400;9.558;2023-03-14T10:48:39;1.23;;;1.13;;
5811;SDS011;2932;52.400;9.558;2023-03-14T10:53:43;1.53;;;1.20;;
5811;SDS011;2932;52.400;9.558;2023-03-14T10:58:51;1.33;;;1.10;;
5811;SDS011;2932;52.400;9.558;2023-03-14T11:07:04;1.70;;;1.60;;
5811;SDS011;2932;52.400;9.558;2023-03-14T11:12:01;0.80;;;0.50;;
5811;SDS011;2932;52.400;9.558;2023-03-14T11:14:41;0.40;;;0.30;;
5811;SDS011;2932;52.400;9.558;2023-03-14T11:17:26;0.93;;;0.30;;
5811;SDS011;2932;52.400;9.558;2023-03-14T11:22:32;0.57;;;0.40;;
5811;SDS011;2932;52.400;9.558;2023-03-14T11:25:11;0.60;;;0.30;;
5811;SDS011;2932;52.400;9.558;2023-03-14T11:38:11;0.70;;;0.50;;
5811;SDS011;2932;52.400;9.558;2023-03-14T11:40:37;0.97;;;0.60;;
5811;SDS011;2932;52.400;9.558;2023-03-14T11:44:08;1.37;;;1.00;;
5811;SDS011;2932;52.400;9.558;2023-03-14T11:46:23;1.60;;;0.73;;
5811;SDS011;2932;52.400;9.558;2023-03-14T11:51:39;0.63;;;0.53;;
5811;SDS011;2932;52.400;9.558;2023-03-14T11:54:20;0.40;;;0.40;;
5811;SDS011;2932;52.400;9.558;2023-03-14T11:57:20;1.97;;;0.50;;
5811;SDS011;2932;52.400;9.558;2023-03-14T12:13:13;1.60;;;1.13;;
5811;SDS011;2932;52.400;9.558;2023-03-14T12:15:41;0.10;;;0.10;;
5811;SDS011;2932;52.400;9.558;2023-03-14T12:18:20;0.63;;;0.30;;
5811;SDS011;2932;52.400;9.558;2023-03-14T12:20:54;0.30;;;0.30;;
5811;SDS011;2932;52.400;9.558;2023-03-14T12:23:22;1.60;;;0.60;;
5811;SDS011;2932;52.400;9.558;2023-03-14T12:26:05;0.80;;;0.43;;
5811;SDS011;2932;52.400;9.558;2023-03-14T12:28:33;0.53;;;0.40;;
5811;SDS011;2932;52.400;9.558;2023-03-14T12:31:20;0.47;;;0.40;;
5811;SDS011;2932;52.400;9.558;2023-03-14T12:34:00;2.00;;;0.30;;
5811;SDS011;2932;52.400;9.558;2023-03-14T12:39:15;1.40;;;0.40;;
5811;SDS011;2932;52.400;9.558;2023-03-14T12:42:01;0.40;;;0.20;;
5811;SDS011;2932;52.400;9.558;2023-03-14T12:49:48;0.93;;;0.60;;
5811;SDS011;2932;52.400;9.558;2023-03-14T12:54:46;2.77;;;0.60;;
5811;SDS011;2932;52.400;9.558;2023-03-14T12:59:59;6.30;;;0.80;;
5811;SDS011;2932;52.400;9.558;2023-03-14T13:02:37;3.50;;;0.43;;
5811;SDS011;2932;52.400;9.558;2023-03-14T13:05:10;4.17;;;0.50;;
5811;SDS011;2932;52.400;9.558;2023-03-14T13:15:38;3.27;;;0.77;;
5811;SDS011;2932;52.400;9.558;2023-03-14T13:18:09;10.60;;;0.77;;
5811;SDS011;2932;52.400;9.558;2023-03-14T13:20:48;4.80;;;0.70;;
5811;SDS011;2932;52.400;9.558;2023-03-14T13:23:21;4.13;;;0.87;;
5811;SDS011;2932;52.400;9.558;2023-03-14T13:25:48;5.97;;;1.20;;
5811;SDS011;2932;52.400;9.558;2023-03-14T13:28:14;5.20;;;0.87;;
5811;SDS011;2932;52.400;9.558;2023-03-14T13:30:42;4.17;;;1.03;;
5811;SDS011;2932;52.400;9.558;2023-03-14T13:33:17;6.27;;;0.93;;
5811;SDS011;2932;52.400;9.558;2023-03-14T13:35:49;3.67;;;0.97;;
5811;SDS011;2932;52.400;9.558;2023-03-14T13:38:21;3.80;;;0.80;;
5811;SDS011;2932;52.400;9.558;2023-03-14T13:40:49;3.77;;;0.97;;
5811;SDS011;2932;52.400;9.558;2023-03-14T13:45:51;5.70;;;1.10;;
5811;SDS011;2932;52.400;9.558;2023-03-14T13:48:20;1.80;;;0.73;;
5811;SDS011;2932;52.400;9.558;2023-03-14T13:50:50;7.30;;;1.43;;
5811;SDS011;2932;52.400;9.558;2023-03-14T13:53:18;4.63;;;1.17;;
5811;SDS011;2932;52.400;9.558;2023-03-14T13:55:43;3.13;;;0.90;;
5811;SDS011;2932;52.400;9.558;2023-03-14T13:58:11;5.83;;;1.63;;
5811;SDS011;2932;52.400;9.558;2023-03-14T14:00:44;9.20;;;1.50;;
5811;SDS011;2932;52.400;9.558;2023-03-14T14:03:23;9.80;;;1.87;;
5811;SDS011;2932;52.400;9.558;2023-03-14T14:05:49;9.07;;;1.93;;
5811;SDS011;2932;52.400;9.558;2023-03-14T14:08:14;8.37;;;1.30;;
5811;SDS011;2932;52.400;9.558;2023-03-14T14:10:40;9.20;;;2.00;;
5811;SDS011;2932;52.400;9.558;2023-03-14T14:13:06;11.50;;;1.70;;
5811;SDS011;2932;52.400;9.558;2023-03-14T14:15:40;9.40;;;1.73;;
5811;SDS011;2932;52.400;9.558;2023-03-14T14:18:09;12.77;;;2.30;;
5811;SDS011;2932;52.400;9.558;2023-03-14T14:20:38;12.43;;;1.57;;
5811;SDS011;2932;52.400;9.558;2023-03-14T14:23:16;9.30;;;1.50;;
5811;SDS011;2932;52.400;9.558;2023-03-14T14:25:49;8.17;;;1.40;;
5811;SDS011;2932;52.400;9.558;2023-03-14T14:31:02;14.07;;;2.17;;
5811;SDS011;2932;52.400;9.558;2023-03-14T14:34:02;6.80;;;1.73;;
5811;SDS011;2932;52.400;9.558;2023-03-14T14:36:38;7.50;;;2.23;;
5811;SDS011;2932;52.400;9.558;2023-03-14T14:41:39;7.33;;;1.93;;
5811;SDS011;2932;52.400;9.558;2023-03-14T14:44:06;4.57;;;1.53;;
5811;SDS011;2932;52.400;9.558;2023-03-14T14:46:33;8.93;;;1.70;;
5811;SDS011;2932;52.400;9.558;2023-03-14T14:49:14;7.57;;;1.50;;
5811;SDS011;2932;52.400;9.558;2023-03-14T14:51:43;4.63;;;1.27;;
5811;SDS011;2932;52.400;9.558;2023-03-14T14:54:16;10.93;;;1.20;;
5811;SDS011;2932;52.400;9.558;2023-03-14T14:56:50;7.50;;;1.37;;
5811;SDS011;2932;52.400;9.558;2023-03-14T14:59:21;7.80;;;1.40;;
5811;SDS011;2932;52.400;9.558;2023-03-14T15:01:58;9.57;;;2.57;;
5811;SDS011;2932;52.400;9.558;2023-03-14T15:04:26;6.07;;;1.00;;
5811;SDS011;2932;52.400;9.558;2023-03-14T15:06:51;5.03;;;1.20;;
5811;SDS011;2932;52.400;9.558;2023-03-14T15:09:18;9.67;;;3.97;;
5811;SDS011;2932;52.400;9.558;2023-03-14T15:11:45;11.40;;;2.27;;
5811;SDS011;2932;52.400;9.558;2023-03-14T15:14:11;7.90;;;2.57;;
5811;SDS011;2932;52.400;9.558;2023-03-14T15:16:36;7.77;;;1.87;;
5811;SDS011;2932;52.400;9.558;2023-03-14T15:19:08;9.63;;;1.40;;
5811;SDS011;2932;52.400;9.558;2023-03-14T15:21:36;4.73;;;1.37;;
5811;SDS011;2932;52.400;9.558;2023-03-14T15:24:03;5.30;;;1.37;;
5811;SDS011;2932;52.400;9.558;2023-03-14T15:26:29;5.03;;;1.07;;
5811;SDS011;2932;52.400;9.558;2023-03-14T15:28:55;6.10;;;1.57;;
5811;SDS011;2932;52.400;9.558;2023-03-14T15:31:20;9.40;;;2.03;;
5811;SDS011;2932;52.400;9.558;2023-03-14T15:33:48;6.20;;;1.20;;
5811;SDS011;2932;52.400;9.558;2023-03-14T15:36:36;8.33;;;1.70;;
5811;SDS011;2932;52.400;9.558;2023-03-14T15:39:01;7.10;;;1.90;;
5811;SDS011;2932;52.400;9.558;2023-03-14T15:41:27;8.63;;;1.27;;
5811;SDS011;2932;52.400;9.558;2023-03-14T15:43:53;6.33;;;1.40;;
5811;SDS011;2932;52.400;9.558;2023-03-14T15:46:19;8.13;;;1.30;;
5811;SDS011;2932;52.400;9.558;2023-03-14T15:48:46;5.43;;;1.13;;
5811;SDS011;2932;52.400;9.558;2023-03-14T15:51:13;4.93;;;1.10;;
5811;SDS011;2932;52.400;9.558;2023-03-14T15:53:39;7.63;;;1.50;;
5811;SDS011;2932;52.400;9.558;2023-03-14T15:56:05;9.63;;;1.10;;
5811;SDS011;2932;52.400;9.558;2023-03-14T15:58:31;6.17;;;0.93;;
5811;SDS011;2932;52.400;9.558;2023-03-14T16:00:59;4.80;;;1.53;;
5811;SDS011;2932;52.400;9.558;2023-03-14T16:03:25;6.60;;;0.87;;
5811;SDS011;2932;52.400;9.558;2023-03-14T16:05:50;8.47;;;1.27;;
5811;SDS011;2932;52.400;9.558;2023-03-14T16:08:15;5.57;;;1.30;;
5811;SDS011;2932;52.400;9.558;2023-03-14T16:10:41;5.90;;;1.10;;
5811;SDS011;2932;52.400;9.558;2023-03-14T16:13:07;8.10;;;1.10;;
5811;SDS011;2932;52.400;9.558;2023-03-14T16:15:32;6.73;;;1.60;;
5811;SDS011;2932;52.400;9.558;2023-03-14T16:17:58;6.63;;;1.07;;
5811;SDS011;2932;52.400;9.558;2023-03-14T16:20:23;9.37;;;1.30;;
5811;SDS011;2932;52.400;9.558;2023-03-14T16:22:49;4.67;;;1.10;;
5811;SDS011;2932;52.400;9.558;2023-03-14T16:25:14;7.00;;;1.23;;
5811;SDS011;2932;52.400;9.558;2023-03-14T16:27:42;5.83;;;1.20;;
5811;SDS011;2932;52.400;9.558;2023-03-14T16:30:08;6.83;;;1.23;;
5811;SDS011;2932;52.400;9.558;2023-03-14T16:32:34;4.47;;;1.50;;
5811;SDS011;2932;52.400;9.558;2023-03-14T16:35:00;4.70;;;1.00;;
5811;SDS011;2932;52.400;9.558;2023-03-14T16:37:26;9.77;;;1.20;;
5811;SDS011;2932;52.400;9.558;2023-03-14T16:39:52;6.57;;;1.60;;
5811;SDS011;2932;52.400;9.558;2023-03-14T16:42:18;5.00;;;1.30;;
5811;SDS011;2932;52.400;9.558;2023-03-14T16:44:45;4.97;;;0.97;;
5811;SDS011;2932;52.400;9.558;2023-03-14T16:47:10;8.17;;;1.50;;
5811;SDS011;2932;52.400;9.558;2023-03-14T16:49:36;6.97;;;1.40;;
5811;SDS011;2932;52.400;9.558;2023-03-14T16:52:01;5.33;;;1.67;;
5811;SDS011;2932;52.400;9.558;2023-03-14T16:54:27;2.80;;;1.17;;